createdAt,value
2018-12-16T00:02:57.170Z,32.27
2018-12-16T00:06:21.914Z,27.67
2018-12-16T00:09:46.635Z,30.33
2018-12-16T00:13:11.300Z,31.97
2018-12-16T00:16:35.986Z,24.73
2018-12-16T00:20:00.697Z,24.67
2018-12-16T00:23:25.417Z,27.23
2018-12-16T00:27:09.009Z,31.90
2018-12-16T00:30:33.865Z,30.23
2018-12-16T00:33:58.569Z,31.70
2018-12-16T00:37:23.340Z,30.40
2018-12-16T00:40:48.072Z,28.37
2018-12-16T00:44:12.833Z,29.97
2018-12-16T00:47:37.667Z,31.90
2018-12-16T00:51:02.431Z,28.83
2018-12-16T00:54:27.208Z,29.60
2018-12-16T00:57:51.915Z,28.87
2018-12-16T01:01:16.679Z,30.27
2018-12-16T01:04:41.607Z,35.43
2018-12-16T01:08:06.270Z,36.27
2018-12-16T01:11:30.969Z,35.17
2018-12-16T01:14:55.699Z,30.97
2018-12-16T01:18:20.443Z,30.67
2018-12-16T01:21:45.185Z,28.23
2018-12-16T01:25:09.930Z,29.53
2018-12-16T01:28:34.722Z,31.40
2018-12-16T01:31:59.381Z,30.27
2018-12-16T01:35:24.015Z,34.07
2018-12-16T01:38:48.692Z,32.00
2018-12-16T01:42:13.374Z,36.30
2018-12-16T01:45:38.070Z,33.33
2018-12-16T01:49:02.805Z,36.03
2018-12-16T01:52:27.490Z,39.07
2018-12-16T01:55:52.200Z,46.80
2018-12-16T01:59:16.884Z,39.07
2018-12-16T02:02:41.606Z,36.73
2018-12-16T02:06:06.477Z,36.23
2018-12-16T02:09:31.295Z,32.53
2018-12-16T02:12:56.108Z,38.60
2018-12-16T02:16:20.826Z,38.20
2018-12-16T02:19:45.625Z,40.83
2018-12-16T02:23:10.340Z,38.90
2018-12-16T02:26:35.106Z,37.43
2018-12-16T02:29:59.803Z,38.00
2018-12-16T02:33:24.530Z,35.17
2018-12-16T02:36:49.219Z,41.00
2018-12-16T02:40:14.175Z,34.23
2018-12-16T02:43:38.855Z,35.63
2018-12-16T02:47:03.658Z,32.93
2018-12-16T02:50:28.434Z,53.20
2018-12-16T02:53:59.795Z,45.33
2018-12-16T02:57:24.547Z,48.00
2018-12-16T03:00:49.340Z,45.33
2018-12-16T03:04:14.024Z,46.37
2018-12-16T03:07:38.754Z,42.77
2018-12-16T03:11:03.575Z,41.87
2018-12-16T03:14:28.362Z,40.67
2018-12-16T03:17:53.630Z,44.90
2018-12-16T03:21:18.334Z,40.17
2018-12-16T03:24:43.041Z,53.97
2018-12-16T03:28:07.707Z,43.03
2018-12-16T03:31:32.394Z,44.30
2018-12-16T03:34:57.166Z,45.50
2018-12-16T03:38:21.822Z,42.70
2018-12-16T03:41:46.549Z,47.07
2018-12-16T03:45:11.406Z,48.50
2018-12-16T03:48:36.131Z,55.23
2018-12-16T03:52:00.907Z,49.13
2018-12-16T03:55:25.667Z,51.33
2018-12-16T03:59:07.148Z,53.57
2018-12-16T04:02:31.821Z,46.27
2018-12-16T04:05:56.499Z,53.87
2018-12-16T04:09:21.242Z,56.43
2018-12-16T04:12:45.910Z,51.87
2018-12-16T04:16:10.650Z,61.23
2018-12-16T04:19:35.403Z,55.10
2018-12-16T04:23:00.039Z,50.47
2018-12-16T04:26:24.744Z,57.30
2018-12-16T04:29:49.485Z,50.77
2018-12-16T04:33:14.155Z,47.33
2018-12-16T04:36:38.864Z,44.07
2018-12-16T04:40:03.700Z,46.97
2018-12-16T04:43:28.474Z,51.80
2018-12-16T04:46:53.183Z,48.30
2018-12-16T04:50:17.870Z,59.00
2018-12-16T04:53:42.607Z,57.60
2018-12-16T04:57:07.301Z,55.40
2018-12-16T05:00:31.947Z,55.40
2018-12-16T05:03:56.663Z,51.83
2018-12-16T05:07:21.318Z,50.97
2018-12-16T05:10:45.984Z,49.10
2018-12-16T05:14:10.717Z,48.87
2018-12-16T05:17:35.341Z,50.03
2018-12-16T05:21:00.012Z,46.27
2018-12-16T05:24:24.748Z,46.50
2018-12-16T05:27:49.555Z,47.63
2018-12-16T05:31:14.245Z,52.07
2018-12-16T05:34:38.931Z,52.10
2018-12-16T05:38:03.634Z,49.03
2018-12-16T05:41:28.320Z,49.97
2018-12-16T05:44:53.105Z,62.77
2018-12-16T05:48:17.735Z,61.00
2018-12-16T05:51:42.414Z,47.97
2018-12-16T05:55:10.515Z,45.77
2018-12-16T05:58:35.188Z,42.60
2018-12-16T06:01:59.874Z,48.33
2018-12-16T06:05:24.553Z,49.47
2018-12-16T06:08:49.205Z,52.97
2018-12-16T06:12:13.838Z,51.17
2018-12-16T06:15:38.564Z,45.60
2018-12-16T06:19:03.218Z,58.70
2018-12-16T06:22:27.913Z,59.63
2018-12-16T06:25:52.527Z,58.77
2018-12-16T06:29:17.261Z,52.97
2018-12-16T06:32:41.935Z,54.97
2018-12-16T06:36:06.646Z,48.67
2018-12-16T06:39:31.264Z,58.63
2018-12-16T06:42:56.047Z,55.17
2018-12-16T06:46:21.076Z,46.10
2018-12-16T06:49:45.687Z,49.27
2018-12-16T06:53:10.379Z,49.37
2018-12-16T06:56:35.204Z,41.00
2018-12-16T07:00:00.185Z,43.40
2018-12-16T07:03:24.883Z,49.30
2018-12-16T07:06:49.574Z,51.67
2018-12-16T07:10:14.384Z,47.53
2018-12-16T07:13:39.118Z,52.77
2018-12-16T07:17:03.834Z,46.07
2018-12-16T07:20:28.525Z,48.93
2018-12-16T07:23:53.284Z,73.27
2018-12-16T07:27:18.158Z,44.67
2018-12-16T07:30:42.919Z,40.77
2018-12-16T07:34:07.574Z,47.37
2018-12-16T07:37:32.416Z,42.03
2018-12-16T07:40:57.276Z,41.40
2018-12-16T07:44:21.973Z,38.77
2018-12-16T07:47:46.921Z,38.57
2018-12-16T07:51:11.602Z,37.57
2018-12-16T07:54:36.346Z,38.63
2018-12-16T07:58:01.079Z,40.23
2018-12-16T08:01:25.833Z,38.30
2018-12-16T08:04:50.567Z,41.63
2018-12-16T08:08:15.412Z,39.93
2018-12-16T08:11:40.055Z,46.70
2018-12-16T08:15:04.969Z,40.90
2018-12-16T08:18:29.664Z,38.27
2018-12-16T08:21:54.404Z,39.93
2018-12-16T08:25:19.049Z,42.87
2018-12-16T08:28:43.696Z,41.20
2018-12-16T08:32:08.415Z,42.17
2018-12-16T08:35:33.190Z,40.73
2018-12-16T08:38:57.947Z,36.93
2018-12-16T08:42:22.631Z,44.60
2018-12-16T08:45:47.301Z,41.00
2018-12-16T08:49:11.939Z,40.40
2018-12-16T08:56:11.554Z,38.90
2018-12-16T08:59:36.298Z,45.30
2018-12-16T09:03:01.058Z,47.73
2018-12-16T09:06:25.881Z,41.20
2018-12-16T09:09:50.534Z,40.90
2018-12-16T09:13:15.204Z,43.73
2018-12-16T09:16:39.870Z,41.37
2018-12-16T09:20:04.962Z,42.07
2018-12-16T09:23:29.618Z,41.37
2018-12-16T09:26:54.275Z,39.17
2018-12-16T09:30:18.948Z,40.60
2018-12-16T09:33:43.714Z,39.13
2018-12-16T09:37:08.386Z,41.90
2018-12-16T09:40:33.143Z,43.57
2018-12-16T09:43:57.792Z,55.50
2018-12-16T09:47:22.956Z,44.73
2018-12-16T09:50:47.675Z,55.60
2018-12-16T09:54:12.476Z,49.73
2018-12-16T09:57:37.210Z,54.47
2018-12-16T10:01:01.946Z,63.43
2018-12-16T10:04:26.602Z,53.33
2018-12-16T10:07:51.260Z,51.27
2018-12-16T10:11:16.051Z,51.47
2018-12-16T10:14:40.885Z,50.37
2018-12-16T10:18:05.813Z,40.57
2018-12-16T10:21:30.620Z,43.53
2018-12-16T10:24:55.246Z,41.10
2018-12-16T10:28:19.885Z,42.30
2018-12-16T10:31:45.915Z,43.10
2018-12-16T10:35:10.721Z,45.13
2018-12-16T10:38:35.459Z,42.33
2018-12-16T10:42:00.105Z,49.37
2018-12-16T10:45:24.795Z,53.37
2018-12-16T10:48:49.473Z,46.50
2018-12-16T10:52:14.139Z,44.17
2018-12-16T10:55:39.005Z,50.93
2018-12-16T10:59:03.706Z,49.60
2018-12-16T11:02:28.396Z,45.90
2018-12-16T11:05:53.056Z,53.13
2018-12-16T11:09:17.810Z,65.97
2018-12-16T11:12:42.883Z,62.70
2018-12-16T11:16:07.556Z,53.67
2018-12-16T11:19:32.281Z,49.27
2018-12-16T11:22:56.938Z,45.57
2018-12-16T11:26:21.600Z,49.87
2018-12-16T11:29:47.145Z,42.33
2018-12-16T11:33:11.900Z,51.17
2018-12-16T11:36:36.594Z,44.43
2018-12-16T11:40:01.280Z,46.73
2018-12-16T11:43:26.035Z,47.30
2018-12-16T11:46:50.703Z,54.13
2018-12-16T11:50:15.348Z,51.00
2018-12-16T11:53:40.026Z,58.83
2018-12-16T11:57:04.906Z,51.40
2018-12-16T12:00:29.540Z,49.93
2018-12-16T12:03:54.201Z,45.70
2018-12-16T12:07:19.078Z,54.33
2018-12-16T12:10:43.787Z,48.70
2018-12-16T12:14:08.460Z,48.03
2018-12-16T12:17:33.098Z,54.20
2018-12-16T12:20:57.749Z,46.83
2018-12-16T12:24:22.366Z,54.00
2018-12-16T12:27:47.113Z,46.47
2018-12-16T12:31:11.785Z,41.57
2018-12-16T12:34:36.443Z,41.13
2018-12-16T12:38:01.120Z,44.90
2018-12-16T12:41:25.769Z,42.23
2018-12-16T12:44:50.509Z,49.67
2018-12-16T12:48:15.191Z,48.83
2018-12-16T12:51:39.923Z,44.60
2018-12-16T12:55:05.034Z,48.07
2018-12-16T12:58:29.700Z,58.43
2018-12-16T13:01:54.359Z,50.87
2018-12-16T13:05:18.994Z,45.80
2018-12-16T13:08:43.634Z,60.23
2018-12-16T13:12:08.306Z,48.67
2018-12-16T13:15:33.010Z,49.77
2018-12-16T13:18:57.657Z,50.63
2018-12-16T13:22:22.330Z,52.77
2018-12-16T13:26:01.977Z,46.37
2018-12-16T13:29:26.792Z,49.87
2018-12-16T13:37:03.230Z,49.37
2018-12-16T13:40:28.023Z,50.13
2018-12-16T13:43:52.746Z,49.60
2018-12-16T13:47:17.483Z,56.67
2018-12-16T13:50:42.312Z,49.20
2018-12-16T13:54:07.092Z,44.43
2018-12-16T13:57:38.968Z,47.10
2018-12-16T14:01:03.734Z,42.63
2018-12-16T14:04:28.448Z,53.03
2018-12-16T14:07:53.133Z,44.83
2018-12-16T14:11:18.788Z,46.73
2018-12-16T14:14:45.114Z,41.90
2018-12-16T14:18:10.135Z,43.33
2018-12-16T14:21:34.801Z,50.73
2018-12-16T14:24:59.526Z,47.33
2018-12-16T14:28:24.220Z,41.30
2018-12-16T14:31:48.866Z,50.37
2018-12-16T14:35:14.286Z,44.77
2018-12-16T14:38:38.966Z,47.37
2018-12-16T14:42:03.742Z,48.13
2018-12-16T14:45:28.426Z,45.23
2018-12-16T14:48:53.089Z,41.23
2018-12-16T14:52:17.778Z,46.73
2018-12-16T14:55:42.445Z,45.37
2018-12-16T14:59:07.166Z,46.43
2018-12-16T15:02:31.844Z,44.77
2018-12-16T15:05:56.564Z,47.53
2018-12-16T15:09:21.858Z,50.37
2018-12-16T15:12:46.611Z,43.20
2018-12-16T15:16:11.256Z,46.93
2018-12-16T15:19:35.933Z,44.10
2018-12-16T15:23:00.620Z,44.43
2018-12-16T15:26:25.252Z,45.80
2018-12-16T15:29:49.933Z,40.43
2018-12-16T15:33:14.632Z,47.80
2018-12-16T15:36:39.334Z,46.37
2018-12-16T15:40:04.173Z,44.23
2018-12-16T15:43:28.830Z,46.03
2018-12-16T15:46:53.479Z,44.80
2018-12-16T15:50:18.251Z,44.77
2018-12-16T15:53:42.934Z,46.50
2018-12-16T15:57:07.642Z,49.27
2018-12-16T16:00:32.305Z,46.93
2018-12-16T16:03:57.016Z,46.60
2018-12-16T16:07:21.725Z,43.13
2018-12-16T16:10:46.415Z,53.50
2018-12-16T16:14:11.120Z,67.03
2018-12-16T16:17:35.794Z,54.50
2018-12-16T16:21:00.421Z,48.77
2018-12-16T16:24:25.236Z,46.57
2018-12-16T16:27:49.979Z,47.83
2018-12-16T16:31:14.698Z,45.73
2018-12-16T16:34:39.402Z,54.73
2018-12-16T16:38:04.635Z,51.07
2018-12-16T16:41:29.265Z,47.87
2018-12-16T16:44:53.999Z,43.40
2018-12-16T16:48:18.736Z,48.60
2018-12-16T16:51:43.470Z,50.73
2018-12-16T16:55:08.542Z,47.73
2018-12-16T16:58:33.225Z,44.00
2018-12-16T17:01:57.911Z,44.60
2018-12-16T17:05:22.583Z,56.40
2018-12-16T17:08:47.291Z,49.10
2018-12-16T17:12:12.009Z,45.07
2018-12-16T17:15:36.698Z,45.37
2018-12-16T17:19:02.850Z,47.60
2018-12-16T17:22:27.588Z,44.80
2018-12-16T17:25:52.262Z,48.13
2018-12-16T17:29:16.961Z,42.53
2018-12-16T17:32:41.659Z,44.90
2018-12-16T17:36:06.400Z,55.93
2018-12-16T17:39:31.087Z,44.73
2018-12-16T17:42:55.747Z,48.53
2018-12-16T17:46:20.405Z,52.23
2018-12-16T17:49:45.128Z,49.83
2018-12-16T17:53:09.872Z,52.13
2018-12-16T17:56:37.215Z,46.23
2018-12-16T18:00:01.249Z,43.90
2018-12-16T18:03:25.969Z,55.23
2018-12-16T18:06:50.663Z,52.03
2018-12-16T18:10:15.366Z,52.87
2018-12-16T18:13:40.107Z,49.47
2018-12-16T18:17:06.139Z,50.23
2018-12-16T18:20:30.844Z,51.83
2018-12-16T18:23:55.532Z,53.10
2018-12-16T18:27:20.273Z,49.97
2018-12-16T18:30:44.944Z,45.23
2018-12-16T18:34:09.895Z,47.63
2018-12-16T18:37:34.560Z,46.83
2018-12-16T18:40:59.243Z,45.83
2018-12-16T18:44:24.083Z,47.40
2018-12-16T18:47:48.764Z,44.27
2018-12-16T18:51:13.527Z,47.63
2018-12-16T18:54:38.315Z,41.57
2018-12-16T18:58:03.151Z,50.13
2018-12-16T19:01:27.881Z,42.23
2018-12-16T19:05:16.493Z,41.90
2018-12-16T19:09:00.148Z,48.43
2018-12-16T19:12:25.195Z,44.63
2018-12-16T19:20:05.544Z,40.87
2018-12-16T19:23:30.255Z,38.37
2018-12-16T19:31:00.174Z,37.27
2018-12-16T19:34:28.613Z,46.30
2018-12-16T19:37:53.445Z,46.77
2018-12-16T19:41:18.117Z,39.33
2018-12-16T19:44:42.919Z,43.13
2018-12-16T19:48:07.699Z,46.37
2018-12-16T19:51:32.422Z,40.90
2018-12-16T19:54:57.794Z,46.83
2018-12-16T19:58:22.892Z,43.00
2018-12-16T20:01:47.669Z,45.47
2018-12-16T20:05:17.585Z,40.53
2018-12-16T20:08:46.564Z,39.63
2018-12-16T20:12:11.331Z,39.33
2018-12-16T20:15:35.981Z,45.23
2018-12-16T20:19:00.644Z,45.33
2018-12-16T20:22:25.304Z,34.10
2018-12-16T20:25:49.987Z,43.30
2018-12-16T20:29:14.749Z,41.57
2018-12-16T20:32:39.562Z,41.53
2018-12-16T20:36:04.414Z,39.80
2018-12-16T20:39:29.076Z,37.00
2018-12-16T20:42:54.319Z,41.63
2018-12-16T20:46:19.153Z,36.53
2018-12-16T20:49:43.777Z,36.30
2018-12-16T20:53:08.787Z,37.33
2018-12-16T20:56:33.475Z,36.00
2018-12-16T20:59:58.157Z,38.50
2018-12-16T21:03:22.816Z,34.50
2018-12-16T21:06:47.480Z,38.73
2018-12-16T21:10:12.330Z,33.80
2018-12-16T21:13:42.077Z,37.70
2018-12-16T21:17:11.948Z,35.67
2018-12-16T21:20:36.653Z,37.87
2018-12-16T21:24:01.496Z,40.70
2018-12-16T21:27:26.355Z,33.27
2018-12-16T21:30:51.176Z,32.13
2018-12-16T21:34:15.842Z,32.93
2018-12-16T21:37:40.686Z,34.77
2018-12-16T21:41:05.411Z,37.00
2018-12-16T21:44:30.061Z,36.07
2018-12-16T21:47:54.760Z,40.27
2018-12-16T21:51:19.467Z,33.90
2018-12-16T21:54:47.005Z,33.97
2018-12-16T21:58:11.718Z,33.50
2018-12-16T22:01:36.685Z,29.93
2018-12-16T22:05:01.719Z,29.80
2018-12-16T22:08:26.531Z,30.97
2018-12-16T22:11:54.454Z,38.10
2018-12-16T22:15:20.280Z,28.20
2018-12-16T22:18:46.945Z,28.90
2018-12-16T22:22:12.419Z,31.70
2018-12-16T22:25:37.667Z,30.33
2018-12-16T22:29:02.720Z,28.20
2018-12-16T22:32:27.960Z,32.20
2018-12-16T22:35:52.767Z,27.53
2018-12-16T22:39:17.448Z,25.40
2018-12-16T22:42:42.167Z,26.50
2018-12-16T22:46:06.912Z,27.50
2018-12-16T22:49:31.774Z,27.77
2018-12-16T22:52:56.520Z,25.73
2018-12-16T22:56:21.200Z,25.90
2018-12-16T22:59:45.871Z,25.03
2018-12-16T23:03:10.527Z,31.07
2018-12-16T23:06:35.252Z,28.90
2018-12-16T23:09:59.954Z,27.40
2018-12-16T23:13:24.659Z,32.63
2018-12-16T23:16:49.345Z,26.80
2018-12-16T23:20:19.760Z,23.60
2018-12-16T23:23:44.554Z,30.73
2018-12-16T23:27:09.204Z,27.17
2018-12-16T23:30:33.878Z,27.10
2018-12-16T23:33:58.529Z,26.87
2018-12-16T23:37:23.201Z,27.47
2018-12-16T23:40:47.865Z,32.10
2018-12-16T23:44:12.469Z,28.47
2018-12-16T23:47:37.166Z,29.33
2018-12-16T23:51:01.815Z,30.97
2018-12-16T23:54:26.501Z,33.57
2018-12-16T23:57:51.165Z,36.43
